Flight Information

DEPARTURE
ONTARIO, CA
Elevation:
944
Runways:
8R/26L - 10200x150 - CONC-G
8L/26R - 12197x150 - CONC-G
ATIS:
124.25 909-605-0056
Clearance Delivery:
118.1
Ground:
121.9
Tower:
120.6
DESTINATION
,
Elevation:
TPA:
1000 (est.)


6754.1 NM74° True-14° Var59° HDG

Flight Plan:
(click to file on line)

1. Type
2. Aircraft Identification
3. Aircraft Type / Special Equipment
4. True Airspeed
kts
5. Departure Airport
(ICAO code)
6. Arriving Airport
(ICAO code)
7. Cruising Altitude
ft
8. Alternate Airport
(ICAO code)
9. Route of Flight
10. Remarks


00:00:00 Departure ATIS: Destination ATIS:

Clearance Limit:
Route:
Altitude: Expect in minutes
Frequency:
Transponder: (7500 Hijack / 7600 Lost Comms / 7700 Emergency)


KONT 281153Z 00000KT 6SM BR FEW008 18/16 A2989 RMK AO2 SLP107 T01780161 10200 20178 55005
Time: 2020-09-28T11:53:00Z
1601294576
Winds: calm
Visibility: 6.0 sm
Clouds (AGL): FEW 800
Temperature: 17.8 C
Dew Point: 16.1 C
Pressure: 29.890747 in Hgbr


Notes:

Data extracted from FAA Digital Chart Supplement. Effective: 0901Z Thursday, Sep 10, 2020 to 0901Z Thursday, Nov 5, 2020
Current ATIS data is provided courtisy of PilotEdge.